createdAt,value
2018-09-20T00:00:55.539Z,99.99
2018-09-20T00:01:55.517Z,99.99
2018-09-20T00:02:55.510Z,99.99
2018-09-20T00:03:55.495Z,99.99
2018-09-20T00:04:55.471Z,99.99
2018-09-20T00:05:55.452Z,99.99
2018-09-20T00:06:55.455Z,99.99
2018-09-20T00:07:55.429Z,99.99
2018-09-20T00:08:55.410Z,99.99
2018-09-20T00:09:55.397Z,99.99
2018-09-20T00:10:55.386Z,99.99
2018-09-20T00:11:55.359Z,99.99
2018-09-20T00:12:55.343Z,99.99
2018-09-20T00:13:55.327Z,99.99
2018-09-20T00:14:55.305Z,99.99
2018-09-20T00:15:55.292Z,99.99
2018-09-20T00:16:55.274Z,99.99
2018-09-20T00:17:55.264Z,99.99
2018-09-20T00:18:55.242Z,99.99
2018-09-20T00:19:55.235Z,99.99
2018-09-20T00:20:55.210Z,99.99
2018-09-20T00:21:55.197Z,99.99
2018-09-20T00:22:55.184Z,99.99
2018-09-20T00:23:55.168Z,99.99
2018-09-20T00:24:55.162Z,99.99
2018-09-20T00:25:55.137Z,99.99
2018-09-20T00:26:55.124Z,99.99
2018-09-20T00:27:55.105Z,99.99
2018-09-20T00:28:55.091Z,99.99
2018-09-20T00:29:55.068Z,99.99
2018-09-20T00:30:55.062Z,99.99
2018-09-20T00:31:55.045Z,99.99
2018-09-20T00:32:55.018Z,99.99
2018-09-20T00:33:54.998Z,99.99
2018-09-20T00:34:54.995Z,99.99
2018-09-20T00:35:54.976Z,99.99
2018-09-20T00:36:54.963Z,99.99
2018-09-20T00:37:54.943Z,99.99
2018-09-20T00:38:54.926Z,99.99
2018-09-20T00:39:54.908Z,99.99
2018-09-20T00:40:54.892Z,99.99
2018-09-20T00:41:54.869Z,99.99
2018-09-20T00:42:54.856Z,99.99
2018-09-20T00:43:54.837Z,99.99
2018-09-20T00:44:54.827Z,99.99
2018-09-20T00:45:54.805Z,99.99
2018-09-20T00:46:54.799Z,99.99
2018-09-20T00:47:54.772Z,99.99
2018-09-20T00:48:54.763Z,99.99
2018-09-20T00:49:54.737Z,99.99
2018-09-20T00:50:54.725Z,99.99
2018-09-20T00:51:54.708Z,99.99
2018-09-20T00:52:54.697Z,99.99
2018-09-20T00:53:54.677Z,99.99
2018-09-20T00:54:54.663Z,99.99
2018-09-20T00:55:54.644Z,99.99
2018-09-20T00:56:54.632Z,99.99
2018-09-20T00:57:54.613Z,99.99
2018-09-20T00:58:54.591Z,99.99
2018-09-20T00:59:54.584Z,99.99
2018-09-20T01:00:54.561Z,99.99
2018-09-20T01:01:54.552Z,99.99
2018-09-20T01:02:54.532Z,99.99
2018-09-20T01:03:54.523Z,99.99
2018-09-20T01:04:54.494Z,99.99
2018-09-20T01:05:54.478Z,99.99
2018-09-20T01:06:54.478Z,99.99
2018-09-20T01:07:54.446Z,99.99
2018-09-20T01:08:54.433Z,99.99
2018-09-20T01:09:54.414Z,99.99
2018-09-20T01:10:54.401Z,99.99
2018-09-20T01:11:54.385Z,99.99
2018-09-20T01:12:54.377Z,99.99
2018-09-20T01:13:54.356Z,99.99
2018-09-20T01:14:54.347Z,99.99
2018-09-20T01:15:54.315Z,99.99
2018-09-20T01:16:54.312Z,99.99
2018-09-20T01:17:54.289Z,99.99
2018-09-20T01:18:54.271Z,99.99
2018-09-20T01:19:54.259Z,99.99
2018-09-20T01:20:54.237Z,99.99
2018-09-20T01:21:54.220Z,99.99
2018-09-20T01:22:54.205Z,99.99
2018-09-20T01:23:54.195Z,99.99
2018-09-20T01:24:54.170Z,99.99
2018-09-20T01:25:54.171Z,99.99
2018-09-20T01:26:54.150Z,99.99
2018-09-20T01:27:54.127Z,99.99
2018-09-20T01:28:54.122Z,99.99
2018-09-20T01:29:54.087Z,99.99
2018-09-20T01:30:54.078Z,99.99
2018-09-20T01:31:54.066Z,99.99
2018-09-20T01:32:54.046Z,99.99
2018-09-20T01:33:54.026Z,99.99
2018-09-20T01:34:54.004Z,99.99
2018-09-20T01:35:53.988Z,99.99
2018-09-20T01:36:53.982Z,99.99
2018-09-20T01:37:53.953Z,99.99
2018-09-20T01:38:53.947Z,99.99
2018-09-20T01:39:53.924Z,99.99
2018-09-20T01:40:53.905Z,99.99
2018-09-20T01:41:53.889Z,99.99
2018-09-20T01:42:53.890Z,99.99
2018-09-20T01:43:53.861Z,99.99
2018-09-20T01:44:53.854Z,99.99
2018-09-20T01:45:53.828Z,99.99
2018-09-20T01:46:53.813Z,99.99
2018-09-20T01:47:53.793Z,99.99
2018-09-20T01:48:54.735Z,99.99
2018-09-20T01:49:53.755Z,99.99
2018-09-20T01:50:53.736Z,99.99
2018-09-20T01:51:53.726Z,99.99
2018-09-20T01:52:53.707Z,99.99
2018-09-20T01:53:53.684Z,99.99
2018-09-20T01:54:53.688Z,99.99
2018-09-20T01:55:53.663Z,99.99
2018-09-20T01:56:53.646Z,99.99
2018-09-20T01:57:53.633Z,99.99
2018-09-20T01:58:53.614Z,99.99
2018-09-20T01:59:53.591Z,99.99
2018-09-20T02:00:53.576Z,99.99
2018-09-20T02:01:53.553Z,99.99
2018-09-20T02:02:53.540Z,99.99
2018-09-20T02:03:53.531Z,99.99
2018-09-20T02:04:53.518Z,99.99
2018-09-20T02:05:53.497Z,99.99
2018-09-20T02:06:53.481Z,99.99
2018-09-20T02:07:53.458Z,99.99
2018-09-20T02:08:53.462Z,99.99
2018-09-20T02:09:53.433Z,99.99
2018-09-20T02:10:53.409Z,99.99
2018-09-20T02:11:53.398Z,99.99
2018-09-20T02:12:53.382Z,99.99
2018-09-20T02:13:53.356Z,99.99
2018-09-20T02:14:53.347Z,99.99
2018-09-20T02:15:53.331Z,99.99
2018-09-20T02:16:53.315Z,99.99
2018-09-20T02:17:53.296Z,99.99
2018-09-20T02:18:53.277Z,99.99
2018-09-20T02:19:53.261Z,99.99
2018-09-20T02:20:53.251Z,99.99
2018-09-20T02:21:53.236Z,99.99
2018-09-20T02:22:53.210Z,99.99
2018-09-20T02:23:53.191Z,99.99
2018-09-20T02:24:53.184Z,99.99
2018-09-20T02:25:53.159Z,99.99
2018-09-20T02:26:53.143Z,99.99
2018-09-20T02:27:53.130Z,99.99
2018-09-20T02:28:53.120Z,99.99
2018-09-20T02:29:53.092Z,99.99
2018-09-20T02:30:53.091Z,99.99
2018-09-20T02:31:53.061Z,99.99
2018-09-20T02:32:53.043Z,99.99
2018-09-20T02:33:53.026Z,99.99
2018-09-20T02:34:53.021Z,99.99
2018-09-20T02:35:52.999Z,99.99
2018-09-20T02:36:52.987Z,99.99
2018-09-20T02:37:52.966Z,99.99
2018-09-20T02:38:52.952Z,99.99
2018-09-20T02:39:52.931Z,99.99
2018-09-20T02:40:52.911Z,99.99
2018-09-20T02:41:52.907Z,99.99
2018-09-20T02:42:52.885Z,99.99
2018-09-20T02:43:52.866Z,99.99
2018-09-20T02:44:52.849Z,99.99
2018-09-20T02:45:52.833Z,99.99
2018-09-20T02:46:52.814Z,99.99
2018-09-20T02:47:52.801Z,99.99
2018-09-20T02:48:52.778Z,99.99
2018-09-20T02:49:52.763Z,99.99
2018-09-20T02:50:52.753Z,99.99
2018-09-20T02:51:52.725Z,99.99
2018-09-20T02:52:52.711Z,99.99
2018-09-20T02:53:52.702Z,99.99
2018-09-20T02:54:52.682Z,99.99
2018-09-20T02:55:52.670Z,99.99
2018-09-20T02:56:52.650Z,99.99
2018-09-20T02:57:52.627Z,99.99
2018-09-20T02:58:52.661Z,99.99
2018-09-20T02:59:52.599Z,99.99
2018-09-20T03:00:52.590Z,99.99
2018-09-20T03:01:52.566Z,99.99
2018-09-20T03:02:52.561Z,99.99
2018-09-20T03:03:52.537Z,99.99
2018-09-20T03:04:52.512Z,99.99
2018-09-20T03:05:52.499Z,99.99
2018-09-20T03:06:52.486Z,99.99
2018-09-20T03:07:52.466Z,99.99
2018-09-20T03:08:52.451Z,99.99
2018-09-20T03:09:52.434Z,99.99
2018-09-20T03:10:52.422Z,99.99
2018-09-20T03:11:52.399Z,99.99
2018-09-20T03:12:52.387Z,99.99
2018-09-20T03:13:52.367Z,99.99
2018-09-20T03:14:52.348Z,99.99
2018-09-20T03:15:52.340Z,99.99
2018-09-20T03:16:52.316Z,99.99
2018-09-20T03:17:52.322Z,99.99
2018-09-20T03:18:52.284Z,99.99
2018-09-20T03:19:52.264Z,99.99
2018-09-20T03:20:52.257Z,99.99
2018-09-20T03:21:52.229Z,99.99
2018-09-20T03:22:52.214Z,99.99
2018-09-20T03:23:52.202Z,99.99
2018-09-20T03:24:52.188Z,99.99
2018-09-20T03:25:52.175Z,99.99
2018-09-20T03:26:52.156Z,99.99
2018-09-20T03:27:52.134Z,99.99
2018-09-20T03:28:52.119Z,99.99
2018-09-20T03:29:52.105Z,99.99
2018-09-20T03:30:52.271Z,99.99
2018-09-20T03:31:52.066Z,99.99
2018-09-20T03:32:52.053Z,99.99
2018-09-20T03:33:52.076Z,99.99
2018-09-20T03:34:52.028Z,99.99
2018-09-20T03:35:51.995Z,99.99
2018-09-20T03:36:51.980Z,99.99
2018-09-20T03:37:51.967Z,99.99
2018-09-20T03:38:51.951Z,99.99
2018-09-20T03:39:51.941Z,99.99
2018-09-20T03:40:51.916Z,99.99
2018-09-20T03:41:51.896Z,99.99
2018-09-20T03:42:51.878Z,99.99
2018-09-20T03:43:51.866Z,99.99
2018-09-20T03:44:51.844Z,99.99
2018-09-20T03:45:51.824Z,99.99
2018-09-20T03:46:51.821Z,99.99
2018-09-20T03:47:51.792Z,99.99
2018-09-20T03:48:51.777Z,99.99
2018-09-20T03:49:51.760Z,99.99
2018-09-20T03:50:51.747Z,99.99
2018-09-20T03:51:51.728Z,99.99
2018-09-20T03:52:51.716Z,99.99
2018-09-20T03:53:51.691Z,99.99
2018-09-20T03:54:51.684Z,99.99
2018-09-20T03:55:51.666Z,99.99
2018-09-20T03:56:51.646Z,99.99
2018-09-20T03:57:51.661Z,99.99
2018-09-20T03:58:51.608Z,99.99
2018-09-20T03:59:51.592Z,99.99
2018-09-20T04:00:51.581Z,99.99
2018-09-20T04:01:51.556Z,99.99
2018-09-20T04:02:51.550Z,99.99
2018-09-20T04:03:51.554Z,99.99
2018-09-20T04:04:51.512Z,99.99
2018-09-20T04:05:51.499Z,99.99
2018-09-20T04:06:51.477Z,99.99
2018-09-20T04:07:51.461Z,99.99
2018-09-20T04:08:51.438Z,99.99
2018-09-20T04:09:51.495Z,99.99
2018-09-20T04:10:51.409Z,99.99
2018-09-20T04:11:51.397Z,99.99
2018-09-20T04:12:51.378Z,99.99
2018-09-20T04:13:51.362Z,99.99
2018-09-20T04:14:51.346Z,99.99
2018-09-20T04:15:51.334Z,99.99
2018-09-20T04:16:51.304Z,99.99
2018-09-20T04:17:51.290Z,99.99
2018-09-20T04:18:51.276Z,99.99
2018-09-20T04:19:51.260Z,99.99
2018-09-20T04:20:51.244Z,99.99
2018-09-20T04:21:51.225Z,99.99
2018-09-20T04:22:51.201Z,99.99
2018-09-20T04:23:51.196Z,99.99
2018-09-20T04:24:51.173Z,99.99
2018-09-20T04:25:51.159Z,99.99
2018-09-20T04:26:51.138Z,99.99
2018-09-20T04:27:51.165Z,99.99
2018-09-20T04:28:51.103Z,99.99
2018-09-20T04:29:51.082Z,99.99
2018-09-20T04:30:51.069Z,99.99
2018-09-20T04:31:51.097Z,99.99
2018-09-20T04:32:51.040Z,99.99
2018-09-20T04:33:51.015Z,99.99
2018-09-20T04:34:51.005Z,99.99
2018-09-20T04:35:50.985Z,99.99
2018-09-20T04:36:50.963Z,99.99
2018-09-20T04:37:50.955Z,99.99
2018-09-20T04:38:50.928Z,99.99
2018-09-20T04:39:50.916Z,99.99
2018-09-20T04:40:50.896Z,99.99
2018-09-20T04:41:50.878Z,99.99
2018-09-20T04:42:50.868Z,99.99
2018-09-20T04:43:50.849Z,99.99
2018-09-20T04:44:50.840Z,99.99
2018-09-20T04:45:50.818Z,99.99
2018-09-20T04:46:50.798Z,99.99
2018-09-20T04:47:50.782Z,99.99
2018-09-20T04:48:50.763Z,99.99
2018-09-20T04:49:50.744Z,99.99
2018-09-20T04:50:50.728Z,99.99
2018-09-20T04:51:50.715Z,99.99
2018-09-20T04:52:50.699Z,99.99
2018-09-20T04:53:50.680Z,99.99
2018-09-20T04:54:50.667Z,99.99
2018-09-20T04:55:50.651Z,99.99
2018-09-20T04:56:50.644Z,99.99
2018-09-20T04:57:50.609Z,99.99
2018-09-20T04:58:50.596Z,99.99
2018-09-20T04:59:50.584Z,99.99
2018-09-20T05:00:50.564Z,99.99
2018-09-20T05:01:50.538Z,99.99
2018-09-20T05:02:50.522Z,99.99
2018-09-20T05:03:50.522Z,99.99
2018-09-20T05:04:50.492Z,99.99
2018-09-20T05:05:50.474Z,99.99
2018-09-20T05:06:50.456Z,99.99
2018-09-20T05:07:50.453Z,99.99
2018-09-20T05:08:50.424Z,99.99
2018-09-20T05:09:50.415Z,99.99
2018-09-20T05:10:50.389Z,99.99
2018-09-20T05:11:50.380Z,99.99
2018-09-20T05:12:50.360Z,99.99
2018-09-20T05:13:50.339Z,99.99
2018-09-20T05:14:50.322Z,99.99
2018-09-20T05:15:50.309Z,99.99
2018-09-20T05:16:50.296Z,99.99
2018-09-20T05:17:50.279Z,99.99
2018-09-20T05:18:50.253Z,99.99
2018-09-20T05:19:50.238Z,99.99
2018-09-20T05:20:50.237Z,99.99
2018-09-20T05:21:50.209Z,99.99
2018-09-20T05:22:50.196Z,99.99
2018-09-20T05:23:50.171Z,99.99
2018-09-20T05:24:50.154Z,99.99
2018-09-20T05:25:50.138Z,99.99
2018-09-20T05:26:50.123Z,99.99
2018-09-20T05:27:50.115Z,99.99
2018-09-20T05:28:50.090Z,99.99
2018-09-20T05:29:50.077Z,99.99
2018-09-20T05:30:50.061Z,99.99
2018-09-20T05:31:50.040Z,99.99
2018-09-20T05:32:50.031Z,99.99
2018-09-20T05:33:50.003Z,99.99
2018-09-20T05:34:49.987Z,99.99
2018-09-20T05:35:49.975Z,99.99
2018-09-20T05:36:49.959Z,99.99
2018-09-20T05:37:49.939Z,99.99
2018-09-20T05:38:49.933Z,99.99
2018-09-20T05:39:49.911Z,99.99
2018-09-20T05:40:49.888Z,99.99
2018-09-20T05:41:49.878Z,99.99
2018-09-20T05:42:49.878Z,99.99
2018-09-20T05:43:49.862Z,99.99
2018-09-20T05:44:49.824Z,99.99
2018-09-20T05:45:49.814Z,99.99
2018-09-20T05:46:49.802Z,99.99
2018-09-20T05:47:49.779Z,99.99
2018-09-20T05:48:49.770Z,99.99
2018-09-20T05:49:49.741Z,99.99
2018-09-20T05:50:49.740Z,99.99
2018-09-20T05:51:49.715Z,99.99
2018-09-20T05:52:49.699Z,99.99
2018-09-20T05:53:49.689Z,99.99
2018-09-20T05:54:49.685Z,99.99
2018-09-20T05:55:49.651Z,99.99
2018-09-20T05:56:49.635Z,99.99
2018-09-20T05:57:49.628Z,99.99
2018-09-20T05:58:49.603Z,99.99
2018-09-20T05:59:49.590Z,99.99
2018-09-20T06:00:49.581Z,99.99
2018-09-20T06:01:49.548Z,99.99
2018-09-20T06:02:49.552Z,99.99
2018-09-20T06:03:49.527Z,99.99
2018-09-20T06:04:49.498Z,99.99
2018-09-20T06:05:49.510Z,99.99
2018-09-20T06:06:49.473Z,99.99
2018-09-20T06:07:49.448Z,99.99
2018-09-20T06:08:49.432Z,99.99
2018-09-20T06:09:49.434Z,99.99
2018-09-20T06:10:49.407Z,99.99
2018-09-20T06:11:49.394Z,99.99
2018-09-20T06:12:49.374Z,99.99
2018-09-20T06:13:49.354Z,99.99
2018-09-20T06:14:49.345Z,99.99
2018-09-20T06:15:49.337Z,99.99
2018-09-20T06:16:49.327Z,99.99
2018-09-20T06:17:49.294Z,99.99
2018-09-20T06:18:49.282Z,99.99
2018-09-20T06:19:49.263Z,99.99
2018-09-20T06:20:49.254Z,99.99
2018-09-20T06:21:49.250Z,99.99
2018-09-20T06:22:49.225Z,99.99
2018-09-20T06:23:49.199Z,99.99
2018-09-20T06:24:49.193Z,99.99
2018-09-20T06:25:49.173Z,99.99
2018-09-20T06:26:49.164Z,99.99
2018-09-20T06:27:49.178Z,99.99
2018-09-20T06:28:49.148Z,99.99
2018-09-20T06:29:49.117Z,99.99
2018-09-20T06:30:49.088Z,99.99
2018-09-20T06:31:49.075Z,99.99
2018-09-20T06:32:49.068Z,99.99
2018-09-20T06:33:49.067Z,99.99
2018-09-20T06:34:49.063Z,99.99
2018-09-20T06:35:49.014Z,99.99
2018-09-20T06:36:49.061Z,99.99
2018-09-20T06:37:49.008Z,99.99
2018-09-20T06:38:48.975Z,99.99
2018-09-20T06:39:48.960Z,99.99
2018-09-20T06:40:48.943Z,99.99
2018-09-20T06:41:48.940Z,99.99
2018-09-20T06:42:48.910Z,99.99
2018-09-20T06:43:48.912Z,99.99
2018-09-20T06:44:48.882Z,99.99
2018-09-20T06:45:48.864Z,99.99
2018-09-20T06:46:48.857Z,99.99
2018-09-20T06:47:48.832Z,99.99
2018-09-20T06:48:48.819Z,99.99
2018-09-20T06:49:48.813Z,99.99
2018-09-20T06:50:48.789Z,99.99
2018-09-20T06:51:48.774Z,99.99
2018-09-20T06:52:48.781Z,99.99
2018-09-20T06:53:48.742Z,99.99
2018-09-20T06:54:48.729Z,99.99
2018-09-20T06:55:48.727Z,99.99
2018-09-20T06:56:48.704Z,99.99
2018-09-20T06:57:48.683Z,99.99
2018-09-20T06:58:48.677Z,99.99
2018-09-20T06:59:48.661Z,99.99
2018-09-20T07:00:48.645Z,99.99
2018-09-20T07:01:48.632Z,99.99
2018-09-20T07:02:48.647Z,99.99
2018-09-20T07:03:48.593Z,99.99
2018-09-20T07:04:48.581Z,99.99
2018-09-20T07:05:48.574Z,99.99
2018-09-20T07:06:48.558Z,99.99
2018-09-20T07:07:48.545Z,99.99
2018-09-20T07:08:48.530Z,99.99
2018-09-20T07:09:48.514Z,99.99
2018-09-20T07:10:48.501Z,99.99
2018-09-20T07:11:48.482Z,99.99
2018-09-20T07:12:48.468Z,99.99
2018-09-20T07:13:48.481Z,99.99
2018-09-20T07:14:48.440Z,99.99
2018-09-20T07:15:48.428Z,99.99
2018-09-20T07:16:48.408Z,99.99
2018-09-20T07:17:48.396Z,99.99
2018-09-20T07:18:48.393Z,99.99
2018-09-20T07:19:48.371Z,99.99
2018-09-20T07:20:48.377Z,99.99
2018-09-20T07:21:48.342Z,99.99
2018-09-20T07:22:48.335Z,99.99
2018-09-20T07:23:48.329Z,99.99
2018-09-20T07:24:48.302Z,99.99
2018-09-20T07:25:48.284Z,99.99
2018-09-20T07:26:48.271Z,99.99
2018-09-20T07:27:48.264Z,99.99
2018-09-20T07:28:48.242Z,99.99
2018-09-20T07:29:48.229Z,99.99
2018-09-20T07:30:48.222Z,99.99
2018-09-20T07:31:48.200Z,99.99
2018-09-20T07:32:48.262Z,99.99
2018-09-20T07:33:48.181Z,99.99
2018-09-20T07:34:48.168Z,99.99
2018-09-20T07:35:48.152Z,99.99
2018-09-20T07:36:48.133Z,99.99
2018-09-20T07:37:48.133Z,99.99
2018-09-20T07:38:48.109Z,99.99
2018-09-20T07:39:48.097Z,99.99
2018-09-20T07:40:48.089Z,99.99
2018-09-20T07:41:48.073Z,99.99
2018-09-20T07:42:48.060Z,99.99
2018-09-20T07:43:48.057Z,99.99
2018-09-20T07:44:48.058Z,96.56
2018-09-20T07:45:48.019Z,98.54
2018-09-20T07:46:48.016Z,97.62
2018-09-20T07:47:47.996Z,96.70
2018-09-20T07:48:47.990Z,96.22
2018-09-20T07:49:47.974Z,94.52
2018-09-20T07:50:47.967Z,90.94
2018-09-20T07:51:47.952Z,89.39
2018-09-20T07:52:47.945Z,90.26
2018-09-20T07:53:47.944Z,89.15
2018-09-20T07:54:47.930Z,86.82
2018-09-20T07:55:47.920Z,88.37
2018-09-20T07:56:47.972Z,86.77
2018-09-20T07:57:47.901Z,86.19
2018-09-20T07:58:47.883Z,86.04
2018-09-20T07:59:47.866Z,83.65
2018-09-20T08:00:47.855Z,85.49
2018-09-20T08:01:47.861Z,80.19
2018-09-20T08:02:47.836Z,77.24
2018-09-20T08:03:47.839Z,77.08
2018-09-20T08:04:47.816Z,78.48
2018-09-20T08:05:47.820Z,78.23
2018-09-20T08:06:47.797Z,75.84
2018-09-20T08:07:47.794Z,75.35
2018-09-20T08:08:47.785Z,73.63
2018-09-20T08:09:47.775Z,72.60
2018-09-20T08:10:47.761Z,70.56
2018-09-20T08:11:47.752Z,70.04
2018-09-20T08:12:47.755Z,72.86
2018-09-20T08:13:47.739Z,71.82
2018-09-20T08:14:47.723Z,70.01
2018-09-20T08:15:47.717Z,70.20
2018-09-20T08:16:47.711Z,69.13
2018-09-20T08:17:47.704Z,67.57
2018-09-20T08:18:47.695Z,70.33
2018-09-20T08:19:47.691Z,69.46
2018-09-20T08:20:47.678Z,68.80
2018-09-20T08:21:47.671Z,67.74
2018-09-20T08:22:47.659Z,67.22
2018-09-20T08:23:47.656Z,68.45
2018-09-20T08:24:47.655Z,66.69
2018-09-20T08:25:47.639Z,65.56
2018-09-20T08:26:47.677Z,66.44
2018-09-20T08:27:47.723Z,68.42
2018-09-20T08:28:47.617Z,67.25
2018-09-20T08:29:47.604Z,65.92
2018-09-20T08:30:47.597Z,64.39
2018-09-20T08:31:47.599Z,64.39
2018-09-20T08:32:47.585Z,64.22
2018-09-20T08:33:47.572Z,63.60
2018-09-20T08:34:47.572Z,63.02
2018-09-20T08:35:47.560Z,63.41
2018-09-20T08:36:47.553Z,64.58
2018-09-20T08:37:47.668Z,65.75
2018-09-20T08:38:47.541Z,64.84
2018-09-20T08:39:47.531Z,64.19
2018-09-20T08:40:47.524Z,61.36
2018-09-20T08:41:47.525Z,62.95
2018-09-20T08:42:47.512Z,63.77
2018-09-20T08:43:47.505Z,63.57
2018-09-20T08:44:47.504Z,64.12
2018-09-20T08:45:47.489Z,63.09
2018-09-20T08:46:47.485Z,59.40
2018-09-20T08:47:47.479Z,61.23
2018-09-20T08:48:47.473Z,60.13
2018-09-20T08:49:47.470Z,61.98
2018-09-20T08:50:47.463Z,64.03
2018-09-20T08:51:47.451Z,63.34
2018-09-20T08:52:47.451Z,62.76
2018-09-20T08:53:47.438Z,62.24
2018-09-20T08:54:47.440Z,62.30
2018-09-20T08:55:47.425Z,60.84
2018-09-20T08:56:47.491Z,61.82
2018-09-20T08:57:47.415Z,63.02
2018-09-20T08:58:47.407Z,60.96
2018-09-20T08:59:47.408Z,59.69
2018-09-20T09:00:47.396Z,61.09
2018-09-20T09:01:47.390Z,58.42
2018-09-20T09:02:47.377Z,57.81
2018-09-20T09:03:47.374Z,57.93
2018-09-20T09:04:47.386Z,58.81
2018-09-20T09:05:47.361Z,60.16
2018-09-20T09:06:47.368Z,58.72
2018-09-20T09:07:47.353Z,58.62
2018-09-20T09:08:47.341Z,58.30
2018-09-20T09:09:47.342Z,60.22
2018-09-20T09:10:47.335Z,59.05
2018-09-20T09:11:47.346Z,60.13
2018-09-20T09:12:47.316Z,58.24
2018-09-20T09:13:47.316Z,60.16
2018-09-20T09:14:47.303Z,59.45
2018-09-20T09:15:47.297Z,60.65
2018-09-20T09:16:47.297Z,60.58
2018-09-20T09:17:47.290Z,61.04
2018-09-20T09:18:47.315Z,58.79
2018-09-20T09:19:47.282Z,58.89
2018-09-20T09:20:47.273Z,60.86
2018-09-20T09:21:47.267Z,57.64
2018-09-20T09:22:47.837Z,57.06
2018-09-20T09:23:47.249Z,58.13
2018-09-20T09:24:47.242Z,57.36
2018-09-20T09:25:47.242Z,59.38
2018-09-20T09:26:47.229Z,59.51
2018-09-20T09:27:47.230Z,59.31
2018-09-20T09:28:47.223Z,58.83
2018-09-20T09:29:47.217Z,59.80
2018-09-20T09:30:47.210Z,60.49
2018-09-20T09:31:47.203Z,62.45
2018-09-20T09:32:47.199Z,63.26
2018-09-20T09:33:47.189Z,63.32
2018-09-20T09:34:47.185Z,62.47
2018-09-20T09:35:47.178Z,61.57
2018-09-20T09:36:47.166Z,62.03
2018-09-20T09:37:47.159Z,63.91
2018-09-20T09:38:47.158Z,66.86
2018-09-20T09:39:47.151Z,65.20
2018-09-20T09:40:47.183Z,65.95
2018-09-20T09:41:47.134Z,66.99
2018-09-20T09:42:47.131Z,65.89
2018-09-20T09:43:47.124Z,65.04
2018-09-20T09:44:47.118Z,63.52
2018-09-20T09:45:47.111Z,64.00
2018-09-20T09:46:47.099Z,65.75
2018-09-20T09:47:47.098Z,62.93
2018-09-20T09:48:47.088Z,64.00
2018-09-20T09:49:47.086Z,64.10
2018-09-20T09:50:47.071Z,63.19
2018-09-20T09:51:47.069Z,61.37
2018-09-20T09:52:47.066Z,59.42
2018-09-20T09:53:47.055Z,59.35
2018-09-20T09:54:47.112Z,60.63
2018-09-20T09:55:47.039Z,62.12
2018-09-20T09:56:47.030Z,62.44
2018-09-20T09:57:47.032Z,60.33
2018-09-20T09:58:47.023Z,60.91
2018-09-20T09:59:47.054Z,59.74
2018-09-20T10:00:47.004Z,61.67
2018-09-20T10:01:47.004Z,64.10
2018-09-20T10:02:46.994Z,62.51
2018-09-20T10:03:46.982Z,61.93
2018-09-20T10:04:46.975Z,61.93
2018-09-20T10:05:46.969Z,62.18
2018-09-20T10:06:46.983Z,59.28
2018-09-20T10:07:46.960Z,59.02
2018-09-20T10:08:46.953Z,57.82
2018-09-20T10:09:46.946Z,57.34
2018-09-20T10:10:46.941Z,57.79
2018-09-20T10:11:46.941Z,59.58
2018-09-20T10:12:46.931Z,58.24
2018-09-20T10:13:46.975Z,58.40
2018-09-20T10:14:46.921Z,57.79
2018-09-20T10:15:46.916Z,60.20
2018-09-20T10:16:46.908Z,60.13
2018-09-20T10:17:46.902Z,59.30
2018-09-20T10:18:46.902Z,61.63
2018-09-20T10:19:46.926Z,60.39
2018-09-20T10:20:46.890Z,60.00
2018-09-20T10:21:46.877Z,59.62
2018-09-20T10:22:46.881Z,58.89
2018-09-20T10:23:46.911Z,61.14
2018-09-20T10:24:46.868Z,59.09
2018-09-20T10:25:46.859Z,57.89
2018-09-20T10:26:46.852Z,60.00
2018-09-20T10:27:46.848Z,58.87
2018-09-20T10:28:46.850Z,60.39
2018-09-20T10:29:46.839Z,57.46
2018-09-20T10:30:46.836Z,60.03
2018-09-20T10:31:46.826Z,57.53
2018-09-20T10:32:46.826Z,58.48
2018-09-20T10:33:46.833Z,58.84
2018-09-20T10:34:46.820Z,59.88
2018-09-20T10:35:46.811Z,61.37
2018-09-20T10:36:46.814Z,58.87
2018-09-20T10:37:46.811Z,58.40
2018-09-20T10:38:46.792Z,59.55
2018-09-20T10:39:46.792Z,60.88
2018-09-20T10:40:46.792Z,58.80
2018-09-20T10:41:46.783Z,59.67
2018-09-20T10:42:46.775Z,58.99
2018-09-20T10:43:46.772Z,58.70
2018-09-20T10:44:46.769Z,57.79
2018-09-20T10:45:46.772Z,58.60
2018-09-20T10:46:46.766Z,58.83
2018-09-20T10:47:46.764Z,59.02
2018-09-20T10:48:46.754Z,57.68
2018-09-20T10:49:46.756Z,56.38
2018-09-20T10:50:46.746Z,57.85
2018-09-20T10:51:46.747Z,57.07
2018-09-20T10:52:46.737Z,56.87
2018-09-20T10:53:46.734Z,60.52
2018-09-20T10:54:46.731Z,59.64
2018-09-20T10:55:46.727Z,57.73
2018-09-20T10:56:46.727Z,59.26
2018-09-20T10:57:46.728Z,58.61
2018-09-20T10:58:46.715Z,59.88
2018-09-20T10:59:46.721Z,62.25
2018-09-20T11:00:46.709Z,58.97
2018-09-20T11:01:46.715Z,59.77
2018-09-20T11:02:46.705Z,58.63
2018-09-20T11:03:46.702Z,57.07
2018-09-20T11:04:46.696Z,56.58
2018-09-20T11:05:46.696Z,58.14
2018-09-20T11:06:46.693Z,60.00
2018-09-20T11:07:46.693Z,58.04
2018-09-20T11:08:46.690Z,58.50
2018-09-20T11:09:46.690Z,57.82
2018-09-20T11:10:46.682Z,58.58
2018-09-20T11:11:46.690Z,57.92
2018-09-20T11:12:46.680Z,56.65
2018-09-20T11:13:46.696Z,57.34
2018-09-20T11:14:46.671Z,58.31
2018-09-20T11:15:46.672Z,55.90
2018-09-20T11:16:46.664Z,54.24
2018-09-20T11:17:46.660Z,54.34
2018-09-20T11:18:46.661Z,51.68
2018-09-20T11:19:46.654Z,50.99
2018-09-20T11:20:46.680Z,50.31
2018-09-20T11:21:46.658Z,49.63
2018-09-20T11:22:46.655Z,48.88
2018-09-20T11:23:46.654Z,50.82
2018-09-20T11:24:46.648Z,50.65
2018-09-20T11:25:46.655Z,50.95
2018-09-20T11:26:46.648Z,49.39
2018-09-20T11:27:46.642Z,51.24
2018-09-20T11:28:46.641Z,51.82
2018-09-20T11:29:46.642Z,52.05
2018-09-20T11:30:46.645Z,51.95
2018-09-20T11:31:46.641Z,51.76
2018-09-20T11:32:46.638Z,51.17
2018-09-20T11:33:46.632Z,52.34
2018-09-20T11:34:46.641Z,50.49
2018-09-20T11:35:46.629Z,50.20
2018-09-20T11:36:46.648Z,51.66
2018-09-20T11:37:46.629Z,52.22
2018-09-20T11:38:46.635Z,52.51
2018-09-20T11:39:46.635Z,52.51
2018-09-20T11:40:46.625Z,51.70
2018-09-20T11:41:46.635Z,51.51
2018-09-20T11:42:46.632Z,52.75
2018-09-20T11:43:46.629Z,53.78
2018-09-20T11:44:46.640Z,54.07
2018-09-20T11:45:46.626Z,51.24
2018-09-20T11:46:46.706Z,51.56
2018-09-20T11:47:46.626Z,51.37
2018-09-20T11:48:46.626Z,50.39
2018-09-20T11:49:46.632Z,51.17
2018-09-20T11:50:46.624Z,50.49
2018-09-20T11:51:46.622Z,51.76
2018-09-20T11:52:46.637Z,51.00
2018-09-20T11:53:46.638Z,49.58
2018-09-20T11:54:46.622Z,50.98
2018-09-20T11:55:46.623Z,53.44
2018-09-20T11:56:46.629Z,51.00
2018-09-20T11:57:46.633Z,51.49
2018-09-20T11:58:46.626Z,49.43
2018-09-20T11:59:46.632Z,48.36
2018-09-20T12:00:46.629Z,50.98
2018-09-20T12:01:46.665Z,50.88
2018-09-20T12:02:46.645Z,48.83
2018-09-20T12:03:46.655Z,49.29
2018-09-20T12:04:46.632Z,50.56
2018-09-20T12:05:46.636Z,48.90
2018-09-20T12:06:46.624Z,50.07
2018-09-20T12:07:46.635Z,51.07
2018-09-20T12:08:46.635Z,51.07
2018-09-20T12:09:46.629Z,50.32
2018-09-20T12:10:46.629Z,50.22
2018-09-20T12:11:46.635Z,49.04
2018-09-20T12:12:46.632Z,50.39
2018-09-20T12:13:46.635Z,50.59
2018-09-20T12:14:46.629Z,48.93
2018-09-20T12:15:46.647Z,50.39
2018-09-20T12:16:46.632Z,49.51
2018-09-20T12:17:46.638Z,49.80
2018-09-20T12:18:46.635Z,49.49
2018-09-20T12:19:46.636Z,49.78
2018-09-20T12:20:46.639Z,50.46
2018-09-20T12:21:46.632Z,50.46
2018-09-20T12:22:46.632Z,50.78
2018-09-20T12:23:46.638Z,48.22
2018-09-20T12:24:46.642Z,49.90
2018-09-20T12:25:46.640Z,53.05
2018-09-20T12:26:46.636Z,50.61
2018-09-20T12:27:46.642Z,49.53
2018-09-20T12:28:46.636Z,49.43
2018-09-20T12:29:46.650Z,48.94
2018-09-20T12:30:46.639Z,49.22
2018-09-20T12:31:46.641Z,50.56
2018-09-20T12:32:46.664Z,52.22
2018-09-20T12:33:46.638Z,48.54
2018-09-20T12:34:46.642Z,48.63
2018-09-20T12:35:46.778Z,48.14
2018-09-20T12:36:46.642Z,47.58
2018-09-20T12:37:46.643Z,48.07
2018-09-20T12:38:46.683Z,46.89
2018-09-20T12:39:46.642Z,48.07
2018-09-20T12:40:46.648Z,49.53
2018-09-20T12:41:46.645Z,48.55
2018-09-20T12:42:46.692Z,48.85
2018-09-20T12:43:46.651Z,48.94
2018-09-20T12:44:46.651Z,48.94
2018-09-20T12:45:46.648Z,48.16
2018-09-20T12:46:46.645Z,47.28
2018-09-20T12:47:46.646Z,49.24
2018-09-20T12:48:46.655Z,48.75
2018-09-20T12:49:46.651Z,47.67
2018-09-20T12:50:46.651Z,49.43
2018-09-20T12:51:46.648Z,46.68
2018-09-20T12:52:46.649Z,50.71